Time;durP1;ratioP1;P1;durP2;ratioP2;P2;SDS_P1;SDS_P2;PMS_P1;PMS_P2;Temp;Humidity;BMP_temperature;BMP_pressure;BME280_temperature;BME280_humidity;BME280_pressure;Samples;Min_cycle;Max_cycle;Signal;HPM_P1;HPM_P2
2022/05/08 04:25:16;;;;;;;13.05;9.40;;;;;;;7.75;100.00;100808.63;5108173;28;20031;-74
2022/05/08 04:27:42;;;;;;;12.38;9.20;;;;;;;7.76;100.00;100812.97;5108208;28;20682;-74
2022/05/08 04:30:08;;;;;;;12.98;9.73;;;;;;;7.80;100.00;100818.81;5108076;28;20206;-74
2022/05/08 04:32:33;;;;;;;13.50;8.73;;;;;;;7.82;100.00;100824.81;5109376;28;20035;-74
2022/05/08 04:34:59;;;;;;;12.00;8.98;;;;;;;7.85;100.00;100825.38;5109220;28;20389;-74
2022/05/08 04:37:25;;;;;;;21.70;13.65;;;;;;;7.88;100.00;100826.88;5109296;28;20043;-74
2022/05/08 04:39:50;;;;;;;22.88;13.18;;;;;;;8.06;100.00;100832.31;5109143;28;20389;-74
2022/05/08 04:42:16;;;;;;;16.77;10.43;;;;;;;8.14;100.00;100833.25;5108685;28;20089;-74
2022/05/08 04:44:41;;;;;;;15.63;8.80;;;;;;;8.07;100.00;100826.84;5108987;28;20113;-74
2022/05/08 04:47:07;;;;;;;13.25;9.15;;;;;;;8.06;100.00;100834.97;5107693;28;20063;-74
2022/05/08 04:49:32;;;;;;;12.27;8.82;;;;;;;8.19;100.00;100835.50;5107700;28;20438;-75
2022/05/08 04:51:57;;;;;;;13.75;8.75;;;;;;;8.20;100.00;100831.84;5108690;28;20093;-75
2022/05/08 04:54:24;;;;;;;13.07;8.25;;;;;;;8.22;100.00;100835.22;5109005;28;20077;-74
2022/05/08 04:56:49;;;;;;;11.43;8.57;;;;;;;8.24;100.00;100835.06;5108682;28;20039;-74
2022/05/08 04:59:15;;;;;;;10.25;8.32;;;;;;;8.26;100.00;100839.25;5108796;28;20052;-74
2022/05/08 05:01:41;;;;;;;11.30;8.23;;;;;;;8.31;100.00;100839.66;5108436;28;20491;-74
2022/05/08 05:04:07;;;;;;;11.05;8.63;;;;;;;8.30;100.00;100834.50;5108742;28;20044;-74
2022/05/08 05:06:33;;;;;;;11.05;8.10;;;;;;;8.40;100.00;100838.81;5108652;28;20663;-74
2022/05/08 05:08:59;;;;;;;11.38;8.15;;;;;;;8.52;100.00;100836.81;5107303;28;20035;-75
2022/05/08 05:11:25;;;;;;;10.93;8.30;;;;;;;8.67;100.00;100848.66;5108444;28;20444;-74
2022/05/08 05:13:50;;;;;;;10.75;7.95;;;;;;;8.75;100.00;100842.63;5108319;28;20043;-73
2022/05/08 05:16:16;;;;;;;10.80;7.53;;;;;;;8.85;100.00;100845.22;5108446;28;20063;-73
2022/05/08 05:18:41;;;;;;;8.90;7.43;;;;;;;8.96;100.00;100845.84;5108508;28;20063;-73
2022/05/08 05:21:07;;;;;;;10.68;8.55;;;;;;;9.04;100.00;100842.44;5106790;28;20481;-74
2022/05/08 05:23:35;;;;;;;7.82;6.53;;;;;;;9.15;100.00;100852.06;5108211;28;20032;-73
2022/05/08 05:26:01;;;;;;;10.20;7.53;;;;;;;9.16;100.00;100857.22;5108139;28;20035;-73
2022/05/08 05:28:27;;;;;;;9.35;7.35;;;;;;;9.18;100.00;100849.06;5108253;28;20036;-73
2022/05/08 05:30:52;;;;;;;9.80;7.10;;;;;;;9.29;100.00;100854.19;5108256;28;20434;-74
2022/05/08 05:33:19;;;;;;;8.85;7.00;;;;;;;9.39;99.46;100849.66;5097842;28;20477;-73
2022/05/08 05:35:44;;;;;;;8.82;7.40;;;;;;;9.47;98.86;100860.38;5094520;28;20070;-74
2022/05/08 05:38:10;;;;;;;10.65;6.97;;;;;;;9.56;98.35;100860.44;5094498;28;20035;-73
2022/05/08 05:40:35;;;;;;;9.55;6.32;;;;;;;9.66;97.43;100853.22;5094326;28;20544;-73
2022/05/08 05:43:01;;;;;;;7.82;7.03;;;;;;;9.77;96.00;100855.63;5092883;28;20445;-73
2022/05/08 05:45:26;;;;;;;10.45;7.50;;;;;;;9.83;95.59;100857.69;5094298;28;20040;-73
2022/05/08 05:47:55;;;;;;;10.13;7.00;;;;;;;9.95;95.15;100864.44;5094339;28;20408;-73
2022/05/08 05:50:24;;;;;;;8.93;6.55;;;;;;;10.04;95.52;100871.53;5094288;28;20039;-74
2022/05/08 05:52:51;;;;;;;8.65;7.47;;;;;;;10.12;94.65;100870.75;5059128;28;20036;-73
2022/05/08 05:55:17;;;;;;;9.48;6.95;;;;;;;10.24;93.98;100879.34;5075884;28;20028;-75
2022/05/08 05:57:44;;;;;;;11.10;7.32;;;;;;;10.32;93.74;100885.56;5094178;28;20040;-74
2022/05/08 06:00:12;;;;;;;9.27;6.60;;;;;;;10.42;92.56;100882.78;5094052;28;20024;-75
2022/05/08 06:02:40;;;;;;;8.68;6.95;;;;;;;10.54;90.79;100886.03;5093803;28;20047;-74
2022/05/08 06:05:06;;;;;;;;;;;;;;;10.67;88.67;100888.25;5094535;28;20038;-76
2022/05/08 06:07:33;;;;;;;9.23;5.90;;;;;;;10.75;88.23;100881.13;5093972;28;19919;-77
2022/05/08 06:09:59;;;;;;;9.27;6.33;;;;;;;10.91;88.49;100883.06;5092580;28;20028;-78
2022/05/08 06:12:25;;;;;;;8.50;6.38;;;;;;;11.08;88.02;100894.59;5093697;28;20032;-78
2022/05/08 06:14:50;;;;;;;11.85;6.90;;;;;;;11.23;87.75;100898.34;5094006;28;20040;-76
2022/05/08 06:17:16;;;;;;;9.85;5.93;;;;;;;11.34;85.91;100889.19;5093808;28;20373;-76
2022/05/08 06:19:41;;;;;;;10.52;6.70;;;;;;;11.47;86.39;100884.22;5092350;28;20114;-77
2022/05/08 06:22:07;;;;;;;7.03;5.82;;;;;;;11.57;84.71;100887.59;5092019;28;20104;-79
2022/05/08 06:24:34;;;;;;;10.15;5.97;;;;;;;11.71;83.75;100893.28;5093579;28;20078;-77
2022/05/08 06:26:59;;;;;;;6.72;5.72;;;;;;;11.79;83.61;100893.28;5084834;28;20036;-77
2022/05/08 06:29:25;;;;;;;7.43;5.90;;;;;;;11.87;83.61;100890.69;5091253;28;20412;-77
2022/05/08 06:31:51;;;;;;;9.90;6.50;;;;;;;11.95;84.13;100894.19;5092066;28;20079;-77
2022/05/08 06:34:17;;;;;;;8.25;6.13;;;;;;;12.12;82.45;100900.34;5092097;28;20067;-76
2022/05/08 06:36:44;;;;;;;7.15;5.75;;;;;;;12.23;80.84;100894.66;5093158;28;20092;-75
2022/05/08 06:39:09;;;;;;;8.25;6.38;;;;;;;12.33;80.38;100896.34;5092844;28;20039;-78
2022/05/08 06:41:36;;;;;;;6.78;6.07;;;;;;;12.44;79.68;100904.81;5088994;28;20035;-76
2022/05/08 06:44:02;;;;;;;7.78;6.35;;;;;;;12.59;82.08;100907.66;5078599;28;20134;-76
2022/05/08 06:46:31;;;;;;;11.40;6.00;;;;;;;12.71;80.94;100898.28;5092627;28;20054;-76
2022/05/08 06:48:57;;;;;;;12.43;8.10;;;;;;;12.83;80.99;100903.22;5092781;28;20082;-76
2022/05/08 06:51:23;;;;;;;10.93;7.78;;;;;;;12.94;81.13;100902.88;5092280;28;20481;-75
2022/05/08 06:53:48;;;;;;;9.15;7.72;;;;;;;13.01;81.71;100904.66;5091997;28;20036;-75
2022/05/08 06:56:16;;;;;;;12.90;9.48;;;;;;;13.19;83.52;100909.78;5091325;28;20036;-75
2022/05/08 07:01:42;;;;;;;14.02;9.68;;;;;;;13.42;81.73;100909.03;5091678;28;20801;-76
2022/05/08 07:04:09;;;;;;;12.50;10.98;;;;;;;13.43;80.77;100900.84;5093003;28;20036;-77
2022/05/08 07:06:36;;;;;;;12.40;9.40;;;;;;;13.53;80.55;100911.31;5092740;28;20499;-76
2022/05/08 07:09:03;;;;;;;12.47;9.30;;;;;;;13.60;80.30;100906.09;5092994;28;20047;-76
2022/05/08 07:11:30;;;;;;;14.25;9.07;;;;;;;13.71;81.02;100908.38;5092589;28;20073;-76
2022/05/08 07:13:57;;;;;;;12.95;9.25;;;;;;;13.83;80.48;100910.44;5093394;28;20550;-77
2022/05/08 07:16:22;;;;;;;10.57;8.70;;;;;;;13.96;78.29;100912.53;5091550;28;20370;-76
2022/05/08 07:18:48;;;;;;;10.82;7.68;;;;;;;14.04;78.13;100908.97;5092468;28;20047;-76
2022/05/08 07:21:13;;;;;;;11.55;7.72;;;;;;;14.12;77.30;100908.88;5092477;28;20044;-77
2022/05/08 07:23:39;;;;;;;12.20;8.57;;;;;;;14.18;77.55;100913.53;5090475;28;20044;-77
2022/05/08 07:26:06;;;;;;;9.55;7.35;;;;;;;14.22;75.95;100905.97;5074546;28;20047;-77
2022/05/08 07:28:32;;;;;;;9.70;7.45;;;;;;;14.35;75.48;100922.25;5092269;28;20488;-75
2022/05/08 07:31:03;;;;;;;9.60;8.35;;;;;;;14.46;75.92;100915.59;5090941;28;20028;-75
2022/05/08 07:33:35;;;;;;;10.63;8.45;;;;;;;14.58;75.17;100923.06;5091498;28;20039;-76
2022/05/08 07:36:14;;;;;;;9.73;7.25;;;;;;;14.65;75.45;100921.31;5090614;28;20032;-76
2022/05/08 07:38:40;;;;;;;12.70;7.47;;;;;;;14.72;74.90;100923.25;5092214;28;20032;-75
2022/05/08 07:41:06;;;;;;;8.35;6.95;;;;;;;14.81;74.63;100933.72;5092046;28;20381;-76
2022/05/08 07:43:31;;;;;;;9.43;6.93;;;;;;;14.88;74.41;100923.94;5091508;28;20036;-76
2022/05/08 07:45:58;;;;;;;7.90;6.68;;;;;;;14.98;74.23;100920.13;5092447;28;20135;-76
2022/05/08 07:48:23;;;;;;;9.93;7.75;;;;;;;15.03;74.13;100928.44;5090982;28;20036;-76
2022/05/08 07:50:50;;;;;;;10.55;7.30;;;;;;;15.07;74.24;100927.91;5091894;28;20039;-75
2022/05/08 07:53:15;;;;;;;11.60;7.22;;;;;;;15.20;74.97;100928.06;5089682;28;20070;-76
2022/05/08 07:55:41;;;;;;;14.10;9.90;;;;;;;15.29;74.87;100928.78;5091482;28;20036;-76
2022/05/08 07:58:07;;;;;;;10.15;7.90;;;;;;;15.42;74.01;100937.00;5091786;28;20044;-75
2022/05/08 08:00:32;;;;;;;11.02;8.05;;;;;;;15.57;72.51;100936.97;5090858;28;20113;-75
2022/05/08 08:02:58;;;;;;;11.27;7.78;;;;;;;15.71;72.71;100929.91;5062224;28;20645;-76
2022/05/08 08:05:26;;;;;;;10.07;7.53;;;;;;;15.79;72.95;100932.50;5090861;28;20110;-75
2022/05/08 08:07:54;;;;;;;8.85;7.13;;;;;;;15.68;71.38;100941.06;5090321;28;20036;-76
2022/05/08 08:10:21;;;;;;;10.77;7.43;;;;;;;15.80;71.28;100942.22;5092381;28;20072;-76
2022/05/08 08:12:46;;;;;;;8.82;7.28;;;;;;;15.93;69.64;100944.22;5090881;28;20096;-75
2022/05/08 08:15:12;;;;;;;9.88;6.95;;;;;;;16.01;68.32;100942.22;5090393;28;20101;-75
2022/05/08 08:17:39;;;;;;;10.32;6.20;;;;;;;16.04;68.18;100929.41;5090764;28;20462;-76
2022/05/08 08:20:06;;;;;;;6.72;5.90;;;;;;;16.13;69.43;100933.66;5090380;28;20042;-75
2022/05/08 08:22:32;;;;;;;7.88;6.80;;;;;;;16.17;69.04;100933.09;5090622;28;20115;-76
2022/05/08 08:25:00;;;;;;;8.77;6.50;;;;;;;16.23;67.47;100944.91;5091460;28;20039;-76
2022/05/08 08:27:26;;;;;;;9.00;6.13;;;;;;;16.34;67.15;100944.38;5091100;28;20040;-76
2022/05/08 08:29:54;;;;;;;7.10;6.13;;;;;;;16.39;66.59;100938.44;5090675;28;20097;-77
2022/05/08 08:32:21;;;;;;;7.78;5.88;;;;;;;16.39;66.03;100930.38;5086152;28;20214;-75
2022/05/08 08:34:47;;;;;;;;;;;;;;;16.57;65.84;100938.78;5093489;28;20036;-76
2022/05/08 08:37:13;;;;;;;7.70;5.88;;;;;;;16.54;65.29;100948.06;5086659;28;19911;-76
2022/05/08 08:39:38;;;;;;;9.50;5.60;;;;;;;16.74;65.27;100947.41;5104361;28;20144;-77
2022/05/08 08:42:26;;;;;;;5.93;5.10;;;;;;;16.90;65.52;100949.81;5086955;28;20091;-76
2022/05/08 08:47:47;;;;;;;7.32;5.43;;;;;;;17.32;64.06;100942.56;5069509;28;20404;-75
2022/05/08 08:50:13;;;;;;;6.80;5.30;;;;;;;17.53;63.54;100947.81;5069890;28;20063;-75
2022/05/08 08:52:38;;;;;;;7.40;5.63;;;;;;;17.70;61.86;100947.47;5070034;28;20075;-75
2022/05/08 08:55:08;;;;;;;6.45;5.30;;;;;;;17.86;61.58;100947.09;5071050;28;20486;-76
2022/05/08 08:57:35;;;;;;;8.90;5.72;;;;;;;18.20;60.87;100945.31;5052772;28;20036;-75
2022/05/08 09:00:00;;;;;;;7.18;5.35;;;;;;;18.36;59.82;100948.41;5069625;28;20485;-75
2022/05/08 09:02:26;;;;;;;6.80;4.90;;;;;;;18.71;58.69;100940.13;5070036;28;20032;-75
2022/05/08 09:04:51;;;;;;;7.88;5.30;;;;;;;18.72;57.96;100943.69;5070759;28;20137;-76
2022/05/08 09:07:38;;;;;;;7.05;5.10;;;;;;;19.20;58.46;100946.88;5069531;28;20040;-75
2022/05/08 09:10:15;;;;;;;7.80;4.95;;;;;;;19.32;56.73;100947.03;5073358;28;20481;-75
2022/05/08 09:13:03;;;;;;;5.82;5.20;;;;;;;19.13;56.35;100946.06;5073682;28;20052;-74
2022/05/08 09:15:34;;;;;;;6.45;4.90;;;;;;;19.37;57.21;100945.38;5056158;28;20036;-76
2022/05/08 09:18:11;;;;;;;7.43;5.80;;;;;;;19.15;55.46;100947.50;5074792;28;20032;-73
2022/05/08 09:20:39;;;;;;;7.28;4.95;;;;;;;19.35;55.28;100946.59;5085726;28;20059;-74
2022/05/08 09:23:13;;;;;;;5.90;5.03;;;;;;;19.28;55.44;100945.81;5093810;28;20046;-74
2022/05/08 09:25:45;;;;;;;6.53;5.25;;;;;;;19.76;54.91;100955.19;5073850;28;20074;-74
2022/05/08 09:28:14;;;;;;;5.82;4.97;;;;;;;20.03;54.95;100947.72;5074192;28;20505;-75
2022/05/08 09:31:19;;;;;;;8.68;4.90;;;;;;;20.23;52.98;100949.47;5076024;28;20054;-74
2022/05/08 09:33:46;;;;;;;6.05;5.22;;;;;;;20.16;53.92;100943.28;5080934;28;20811;-74
2022/05/08 09:36:24;;;;;;;5.75;4.88;;;;;;;19.86;53.54;100946.59;5075823;28;20500;-75
2022/05/08 09:38:55;;;;;;;6.15;4.97;;;;;;;20.52;53.13;100940.72;5094867;28;20035;-73
2022/05/08 09:41:24;;;;;;;4.78;4.20;;;;;;;20.62;52.76;100933.97;5094360;28;20062;-74
2022/05/08 09:43:52;;;;;;;6.65;5.40;;;;;;;20.97;52.91;100931.53;5094139;28;20479;-73
2022/05/08 09:46:20;;;;;;;6.07;5.00;;;;;;;21.03;52.03;100922.50;5094325;28;20515;-74
2022/05/08 09:48:46;;;;;;;7.85;5.60;;;;;;;21.45;50.76;100919.94;5094244;28;20024;-75
2022/05/08 09:51:13;;;;;;;5.20;4.70;;;;;;;21.51;49.46;100927.16;5094326;28;20036;-74
2022/05/08 09:53:41;;;;;;;5.75;5.03;;;;;;;21.68;49.31;100929.00;5093963;28;20032;-74
2022/05/08 09:56:08;;;;;;;6.63;4.90;;;;;;;21.77;48.92;100924.06;5092813;28;20341;-74
2022/05/08 09:58:34;;;;;;;7.78;5.38;;;;;;;21.95;48.06;100928.59;5094163;28;20048;-75
2022/05/08 10:01:02;;;;;;;5.50;4.57;;;;;;;22.34;47.24;100916.31;5094247;28;20024;-75
2022/05/08 10:03:29;;;;;;;6.10;4.97;;;;;;;22.28;45.90;100919.97;5093556;28;20047;-74
2022/05/08 10:05:55;;;;;;;6.22;5.63;;;;;;;22.44;45.47;100927.44;5091784;28;20043;-75
2022/05/08 10:08:35;;;;;;;6.60;5.57;;;;;;;22.45;46.63;100920.13;5094824;28;20036;-75
2022/05/08 10:13:59;;;;;;;7.20;5.45;;;;;;;22.55;47.29;100919.53;5094015;28;20036;-76
2022/05/08 10:16:56;;;;;;;7.32;5.40;;;;;;;23.02;45.69;100923.06;5094134;28;20035;-77
2022/05/08 10:19:27;;;;;;;10.30;5.25;;;;;;;22.68;46.09;100909.25;5094406;28;20133;-76
2022/05/08 10:22:03;;;;;;;7.65;5.25;;;;;;;23.07;46.49;100917.72;5092049;28;20039;-75
2022/05/08 10:24:34;;;;;;;5.57;5.07;;;;;;;23.38;44.55;100911.03;5093779;28;20036;-76
2022/05/08 10:27:28;;;;;;;7.05;4.53;;;;;;;23.35;46.52;100908.81;5092116;28;20078;-75
2022/05/08 10:29:53;;;;;;;6.90;4.95;;;;;;;23.95;43.83;100904.78;5093423;28;20046;-73
2022/05/08 10:32:45;;;;;;;8.55;5.38;;;;;;;23.95;42.67;100910.22;5075456;28;20393;-74
2022/05/08 10:35:10;;;;;;;7.40;5.47;;;;;;;23.60;42.38;100903.00;5089705;28;20452;-72
2022/05/08 10:37:41;;;;;;;6.68;5.60;;;;;;;23.29;42.63;100901.63;5093867;28;20106;-75
2022/05/08 10:40:30;;;;;;;12.40;4.97;;;;;;;23.87;41.67;100905.19;5091953;28;20040;-73
2022/05/08 10:43:01;;;;;;;8.63;5.07;;;;;;;24.06;41.12;100899.25;5089407;28;20054;-74
2022/05/08 10:45:32;;;;;;;5.32;4.72;;;;;;;23.99;41.60;100895.03;5093145;28;20028;-76
2022/05/08 10:48:14;;;;;;;5.32;4.53;;;;;;;24.32;41.13;100896.94;5091753;28;20044;-74
2022/05/08 10:50:54;;;;;;;6.15;4.93;;;;;;;23.71;42.67;100890.47;5092986;28;20040;-75
2022/05/08 10:53:32;;;;;;;5.97;4.47;;;;;;;24.04;42.16;100886.97;5092704;28;20538;-74
2022/05/08 10:56:10;;;;;;;4.80;4.40;;;;;;;24.00;41.86;100889.38;5091973;28;20035;-75
2022/05/08 10:58:39;;;;;;;4.93;4.45;;;;;;;23.88;41.03;100890.50;5092905;28;20031;-74
2022/05/08 11:01:09;;;;;;;4.72;4.22;;;;;;;24.41;40.44;100887.31;5093558;28;20035;-78
2022/05/08 11:03:35;;;;;;;8.10;4.40;;;;;;;24.34;40.04;100889.38;5093302;28;20035;-77
2022/05/08 11:06:03;;;;;;;5.88;4.10;;;;;;;24.50;36.74;100887.72;5093883;28;20036;-76
2022/05/08 11:08:31;;;;;;;4.03;3.60;;;;;;;24.32;37.95;100891.47;5093624;28;20036;-77
2022/05/08 11:11:12;;;;;;;4.88;4.20;;;;;;;24.61;36.13;100884.88;5075997;28;20127;-75
2022/05/08 11:13:40;;;;;;;4.13;3.40;;;;;;;24.88;35.38;100884.16;5093777;28;20055;-76
2022/05/08 11:16:06;;;;;;;5.70;4.32;;;;;;;25.11;34.69;100889.41;5093313;28;20036;-75
2022/05/08 11:18:31;;;;;;;4.55;4.00;;;;;;;25.55;36.20;100881.16;5092777;28;20045;-76
2022/05/08 11:21:00;;;;;;;6.07;4.20;;;;;;;25.59;35.55;100890.47;5092958;28;20468;-77
2022/05/08 11:23:33;;;;;;;5.18;4.22;;;;;;;25.92;36.45;100878.53;5090714;28;20115;-75
2022/05/08 11:26:01;;;;;;;4.57;3.90;;;;;;;25.90;33.98;100877.16;5092347;28;20465;-76
2022/05/08 11:28:29;;;;;;;6.43;4.05;;;;;;;26.49;33.72;100882.53;5092593;28;20039;-76
2022/05/08 11:30:56;;;;;;;5.43;3.85;;;;;;;26.59;33.63;100874.41;5090199;28;20055;-76
2022/05/08 11:36:31;;;;;;;7.65;4.70;;;;;;;25.11;35.41;100877.69;5092746;28;20401;-76
2022/05/08 11:39:19;;;;;;;4.53;3.33;;;;;;;25.12;35.01;100874.69;5092128;28;20062;-77
2022/05/08 11:41:47;;;;;;;4.55;3.58;;;;;;;25.20;33.77;100872.59;5091718;28;20101;-76
2022/05/08 11:44:16;;;;;;;6.55;3.75;;;;;;;24.89;33.91;100869.44;5091951;28;20127;-78
2022/05/08 11:46:51;;;;;;;3.90;3.50;;;;;;;25.23;32.83;100870.16;5092053;28;20035;-76
2022/05/08 11:49:27;;;;;;;6.97;3.63;;;;;;;25.51;33.86;100873.75;5092157;28;20031;-76
2022/05/08 11:52:01;;;;;;;5.43;3.38;;;;;;;25.91;33.15;100871.44;5091869;28;20093;-75
2022/05/08 11:54:32;;;;;;;3.63;3.15;;;;;;;26.33;32.35;100867.09;5092408;28;20046;-76
2022/05/08 11:57:14;;;;;;;5.47;3.42;;;;;;;26.79;31.32;100865.47;5091055;28;20488;-75
2022/05/08 11:59:41;;;;;;;3.85;3.40;;;;;;;25.64;32.26;100863.25;5092261;28;20050;-75
2022/05/08 12:02:07;;;;;;;6.05;3.40;;;;;;;25.77;32.17;100872.13;5090277;28;20039;-77
2022/05/08 12:04:36;;;;;;;9.02;4.15;;;;;;;26.12;31.19;100866.97;5092126;28;20125;-77
2022/05/08 12:07:10;;;;;;;5.18;3.40;;;;;;;25.69;31.20;100863.31;5091823;28;20040;-75
2022/05/08 12:09:52;;;;;;;5.65;3.90;;;;;;;25.78;32.16;100869.13;5094645;28;20499;-78
2022/05/08 12:12:39;;;;;;;4.63;4.20;;;;;;;26.08;31.39;100854.94;5093262;28;20036;-79
2022/05/08 12:15:07;;;;;;;;;;;;;;;26.41;32.42;100855.75;5095706;28;20039;-76
2022/05/08 12:17:39;;;;;;;8.30;5.38;;;;;;;26.62;31.62;100854.75;5095618;28;19967;-77
2022/05/08 12:20:09;;;;;;;6.55;3.17;;;;;;;25.82;31.12;100856.63;5092422;28;20485;-77
2022/05/08 12:22:35;;;;;;;4.97;3.72;;;;;;;26.24;32.65;100848.47;5091467;28;20076;-76
2022/05/08 12:25:01;;;;;;;4.53;3.67;;;;;;;26.45;31.97;100848.66;5091608;28;20062;-77
2022/05/08 12:27:27;;;;;;;5.90;4.20;;;;;;;26.58;30.67;100848.16;5091403;28;20553;-76
2022/05/08 12:29:53;;;;;;;4.03;3.25;;;;;;;26.08;30.93;100851.34;5091712;28;20031;-77
2022/05/08 12:32:20;;;;;;;6.22;3.95;;;;;;;26.50;30.66;100838.56;5091268;28;20071;-76
2022/05/08 12:34:47;;;;;;;3.90;3.38;;;;;;;26.72;29.93;100851.25;5091549;28;20143;-76
2022/05/08 12:37:15;;;;;;;4.40;3.40;;;;;;;26.93;29.68;100852.16;5090443;28;20374;-76
2022/05/08 12:39:41;;;;;;;6.03;3.83;;;;;;;27.05;30.22;100850.03;5091516;28;20048;-77
2022/05/08 12:42:08;;;;;;;7.93;3.55;;;;;;;26.81;29.83;100841.47;5091380;28;20024;-77
2022/05/08 12:44:36;;;;;;;4.40;4.00;;;;;;;26.66;31.38;100839.47;5095634;28;20040;-76
2022/05/08 12:47:06;;;;;;;4.95;3.67;;;;;;;27.15;30.78;100844.63;5095413;28;20040;-77
2022/05/08 12:49:32;;;;;;;7.95;3.80;;;;;;;27.49;30.10;100836.75;5094366;28;20130;-76
2022/05/08 12:51:58;;;;;;;4.30;3.60;;;;;;;27.57;29.55;100840.88;5095003;28;20464;-76
2022/05/08 12:54:24;;;;;;;4.38;3.35;;;;;;;28.03;28.71;100825.31;5095500;28;20027;-76
2022/05/08 12:56:50;;;;;;;4.60;3.30;;;;;;;27.83;28.46;100828.06;5095509;28;20078;-76
2022/05/08 13:01:59;;;;;;;5.40;3.45;;;;;;;27.16;29.44;100829.03;5095090;28;20028;-76
2022/05/08 13:04:26;;;;;;;5.28;3.40;;;;;;;26.98;31.03;100830.31;5094116;28;20067;-76
2022/05/08 13:06:51;;;;;;;6.00;3.63;;;;;;;27.45;29.76;100821.16;5077098;28;20485;-76
2022/05/08 13:09:18;;;;;;;7.50;4.03;;;;;;;27.69;29.58;100824.22;5095307;28;20282;-78
2022/05/08 13:11:44;;;;;;;5.18;2.95;;;;;;;27.74;27.70;100821.50;5094975;28;20044;-77
2022/05/08 13:14:09;;;;;;;5.05;3.42;;;;;;;27.98;27.39;100822.59;5093926;28;20047;-77
2022/05/08 13:16:35;;;;;;;4.68;3.40;;;;;;;27.49;27.58;100819.53;5098930;28;20484;-79
2022/05/08 13:19:02;;;;;;;4.63;3.40;;;;;;;27.79;27.23;100822.31;5097695;28;20044;-77
2022/05/08 13:21:36;;;;;;;4.55;3.40;;;;;;;26.13;29.26;100815.91;5097182;28;20111;-78
2022/05/08 13:24:02;;;;;;;4.13;3.30;;;;;;;27.29;28.20;100815.66;5094471;28;20499;-77
2022/05/08 13:26:27;;;;;;;4.93;3.30;;;;;;;27.02;28.94;100817.75;5096574;28;20036;-76
2022/05/08 13:28:53;;;;;;;7.68;3.45;;;;;;;26.90;30.00;100807.06;5096738;28;20040;-78
2022/05/08 13:31:19;;;;;;;4.00;3.58;;;;;;;26.89;29.18;100819.09;5096930;28;20036;-78
2022/05/08 13:33:45;;;;;;;5.82;3.30;;;;;;;26.58;28.62;100806.38;5097503;28;20130;-77
2022/05/08 13:36:12;;;;;;;5.38;3.47;;;;;;;25.65;31.08;100802.16;5098143;28;20040;-76
2022/05/08 13:38:42;;;;;;;5.00;3.50;;;;;;;25.92;31.12;100790.38;5097208;28;20357;-79
2022/05/08 13:41:08;;;;;;;4.30;3.10;;;;;;;25.70;31.19;100801.38;5094301;28;20043;-77
2022/05/08 13:43:35;;;;;;;4.53;3.38;;;;;;;25.82;31.61;100803.94;5093312;28;20054;-77
2022/05/08 13:46:00;;;;;;;5.43;3.28;;;;;;;25.77;30.95;100803.94;5094739;28;20077;-77
2022/05/08 13:48:26;;;;;;;6.97;3.95;;;;;;;25.54;32.23;100805.03;5093426;28;20062;-79
2022/05/08 13:50:51;;;;;;;8.50;3.58;;;;;;;25.59;30.71;100797.75;5094473;28;20036;-78
2022/05/08 13:53:19;;;;;;;5.28;3.95;;;;;;;25.06;32.25;100798.56;5096209;28;20380;-78
2022/05/08 13:55:46;;;;;;;5.25;3.50;;;;;;;25.25;32.40;100799.06;5096233;28;20075;-77
2022/05/08 13:58:12;;;;;;;5.25;4.00;;;;;;;24.67;32.99;100800.53;5095479;28;20454;-75
2022/05/08 14:00:39;;;;;;;5.72;4.75;;;;;;;24.84;32.84;100788.50;5096364;28;20165;-78
2022/05/08 14:03:09;;;;;;;;;;;;;;;25.00;34.58;100802.28;5098269;28;20047;-77
2022/05/08 14:05:36;;;;;;;6.60;4.70;;;;;;;24.94;33.95;100790.50;5096558;28;19950;-77
2022/05/08 14:08:03;;;;;;;5.68;4.05;;;;;;;24.88;34.29;100792.34;5094186;28;20058;-77
2022/05/08 14:10:29;;;;;;;6.65;4.05;;;;;;;24.62;33.61;100793.13;5096832;28;20043;-77
2022/05/08 14:12:55;;;;;;;6.22;3.92;;;;;;;24.40;33.85;100784.94;5095235;28;20072;-78
2022/05/08 14:15:21;;;;;;;8.05;4.65;;;;;;;24.88;33.91;100786.06;5093881;28;20107;-77
2022/05/08 14:17:51;;;;;;;7.82;4.43;;;;;;;25.00;32.81;100783.22;5094739;28;20081;-78
2022/05/08 14:20:17;;;;;;;6.22;4.70;;;;;;;24.91;34.10;100785.59;5095189;28;20032;-77
2022/05/08 14:22:42;;;;;;;4.03;3.60;;;;;;;24.80;33.13;100791.97;5094612;28;20100;-77
2022/05/08 14:25:12;;;;;;;5.55;4.00;;;;;;;24.62;33.79;100787.66;5095282;28;20071;-77
2022/05/08 14:27:38;;;;;;;4.47;3.70;;;;;;;24.28;35.06;100782.28;5093818;28;20062;-77
2022/05/08 14:30:11;;;;;;;5.65;4.35;;;;;;;24.56;34.26;100778.59;5093660;28;20047;-78
2022/05/08 14:36:01;;;;;;;;;;;;;;;24.44;35.58;100790.69;5096663;28;20046;-76
2022/05/08 14:38:26;;;;;;;7.28;4.55;;;;;;;24.35;34.60;100780.25;5095820;28;20441;-77
2022/05/08 14:40:53;;;;;;;5.15;4.13;;;;;;;24.52;34.40;100779.38;5095012;28;20039;-77
2022/05/08 14:43:21;;;;;;;4.43;3.40;;;;;;;24.48;33.51;100781.78;5092983;28;20079;-78
2022/05/08 14:45:47;;;;;;;5.28;4.50;;;;;;;24.39;34.13;100772.41;5093878;28;20044;-77
2022/05/08 14:48:12;;;;;;;5.35;3.63;;;;;;;24.11;34.72;100781.50;5095858;28;20043;-79
2022/05/08 14:50:40;;;;;;;5.80;3.60;;;;;;;24.13;34.36;100767.66;5093435;28;20070;-78
2022/05/08 14:53:10;;;;;;;5.55;3.85;;;;;;;24.10;34.55;100760.81;5093032;28;20514;-78
2022/05/08 14:55:37;;;;;;;4.93;4.05;;;;;;;24.23;34.91;100767.78;5096734;28;20028;-78
2022/05/08 14:58:02;;;;;;;5.50;4.20;;;;;;;24.21;35.25;100761.78;5095344;28;20469;-79
2022/05/08 15:00:28;;;;;;;4.68;3.90;;;;;;;23.91;34.87;100757.53;5096144;28;20089;-78
2022/05/08 15:02:55;;;;;;;4.40;3.80;;;;;;;23.82;33.87;100772.63;5095770;28;20036;-78
2022/05/08 15:05:20;;;;;;;4.43;3.20;;;;;;;23.75;33.61;100771.97;5097375;28;20040;-79
2022/05/08 15:07:49;;;;;;;5.35;3.80;;;;;;;23.70;33.60;100767.28;5097720;28;20043;-79
2022/05/08 15:10:15;;;;;;;5.90;3.85;;;;;;;23.71;34.06;100766.19;5097329;28;20032;-80
2022/05/08 15:12:40;;;;;;;5.28;4.00;;;;;;;23.73;33.98;100769.47;5094773;28;20062;-79
2022/05/08 15:15:07;;;;;;;6.18;4.70;;;;;;;23.67;33.69;100770.50;5095155;28;20031;-79
2022/05/08 15:17:32;;;;;;;6.67;4.43;;;;;;;23.67;33.92;100770.50;5095034;28;20046;-77
2022/05/08 15:19:58;;;;;;;5.32;3.92;;;;;;;23.62;33.45;100769.59;5095261;28;20032;-78
2022/05/08 15:22:24;;;;;;;4.57;3.90;;;;;;;23.46;33.21;100763.00;5095737;28;20074;-78
2022/05/08 15:24:49;;;;;;;4.80;3.53;;;;;;;23.56;32.96;100753.16;5095179;28;20072;-80
2022/05/08 15:27:15;;;;;;;6.18;3.60;;;;;;;23.60;33.63;100764.34;5092976;28;20372;-79
2022/05/08 15:29:41;;;;;;;4.85;3.75;;;;;;;23.62;33.93;100766.88;5094327;28;20064;-80
2022/05/08 15:32:09;;;;;;;5.28;3.40;;;;;;;23.59;34.42;100761.88;5096988;28;20068;-80
2022/05/08 15:34:36;;;;;;;5.82;3.88;;;;;;;23.32;34.65;100767.13;5097684;28;20114;-78
2022/05/08 15:37:02;;;;;;;7.22;3.60;;;;;;;23.52;34.54;100767.47;5094872;28;20032;-78
2022/05/08 15:39:27;;;;;;;5.07;3.92;;;;;;;23.48;34.10;100756.28;5096412;28;20039;-78
2022/05/08 15:41:53;;;;;;;5.22;3.67;;;;;;;23.42;34.13;100757.25;5094696;28;20039;-79
2022/05/08 15:44:19;;;;;;;4.35;3.85;;;;;;;23.54;34.22;100762.63;5096101;28;20032;-78
2022/05/08 15:46:44;;;;;;;6.45;4.20;;;;;;;23.50;34.71;100765.00;5096785;28;20118;-79
2022/05/08 15:49:10;;;;;;;13.20;8.05;;;;;;;23.52;34.67;100762.03;5094489;28;20265;-79
2022/05/08 15:51:37;;;;;;;10.13;6.38;;;;;;;23.44;35.10;100757.00;5095360;28;20202;-78
2022/05/08 15:54:05;;;;;;;8.27;5.75;;;;;;;23.44;35.24;100755.13;5094252;28;20036;-78
2022/05/08 15:56:34;;;;;;;6.55;4.65;;;;;;;23.47;35.37;100762.78;5096057;28;20048;-79
2022/05/08 15:59:00;;;;;;;8.25;5.95;;;;;;;23.49;35.43;100752.50;5096739;28;20048;-80
2022/05/08 16:01:26;;;;;;;9.85;5.43;;;;;;;23.43;34.58;100758.91;5098952;28;20057;-78
2022/05/08 16:03:52;;;;;;;8.13;4.70;;;;;;;23.41;34.69;100766.50;5097613;28;20163;-80
2022/05/08 16:06:17;;;;;;;9.85;4.72;;;;;;;23.15;34.24;100762.50;5097705;28;20084;-78
2022/05/08 16:08:43;;;;;;;6.93;4.47;;;;;;;23.10;34.65;100775.16;5093890;28;20119;-78
2022/05/08 16:11:09;;;;;;;4.93;3.97;;;;;;;23.15;35.43;100767.09;5094520;28;20044;-79